Terminal Aerodrome Forecast
Issued by NWS Paducah, KY

Home | Current Version | Previous Version | Text Only | Print | Product List | Glossary Off
Versions: 1 2 3 4 5 6 7 8 9 10 11 12 13 14 15 16 17

000
FTUS43 KPAH 042329
TAFPAH
TAF
KPAH 042329Z 0500/0524 00000KT P6SM FEW250
     FM050400 00000KT 5SM BR MIFG SKC
      TEMPO 0508/0512 2SM BR SCT005
     FM051400 10002KT P6SM SKC
     FM051530 09004KT P6SM SCT060=

USA.gov is the U.S. government's official web portal to all federal, state and local government web resources and services.